Aeroporto :
LOGIN :

Iscrizione | Disclaimer

   EN    FR    IT 

 










Sommario :    VFR   VFR Marginale   IFR   IFR Intensivo   IFR Molto Intensivo
Visibilità : 
Base nubi : 
>= 8 km
>= 3000ft
5 / 8 km
1000 / 3000 ft
1500m / 5 km
500 / 1000 ft
800 / 1500m
200 / 500 ft
< 800m
< 200 ft
Simboli :   Temporali  Nebbia  Neve Forte  Precipitazioni Forti  Vento > 20 kt
SIGMETs :   Varie  Temporali  Ghiacco  Turbolenza  Onda orograficha  Ceneri Vulcaniche






- Altitudine del aeroporto : 466 ft


LHPA - Pápa

ULTIMO METAR :
  • 240845Z 33014KT 4000 -RA BR BKN007 OVC023 06/04 Q1006 NOSIG RMK GRN

METARs OBSOLETI :
  • 240815Z 32011KT 4000 -RA BR BKN007 OVC023 05/04 Q1006 NOSIG RMK GRN
  • 240745Z 32011KT 280V340 4000 -RA BR BKN007 OVC023 06/04 Q1006 NOSIG RMK GRN
  • 240715Z 31010KT 4000 -RA BR BKN007 OVC023 05/04 Q1006 NOSIG RMK GRN
  • 240645Z 32011KT 290V350 4000 -RA BR BKN007 OVC023 05/04 Q1006 NOSIG RMK GRN
  • 240615Z 32013KT 4000 -RA BR BKN007 OVC023 06/05 Q1006 NOSIG RMK GRN
  • 240545Z 33013KT 300V360 4000 -RA BR BKN007 OVC023 05/04 Q1005 NOSIG RMK GRN
  • 240515Z 33014KT 4000 -RA BR BKN008 OVC020 05/04 Q1005 NOSIG RMK GRN
  • 240445Z 33014KT 300V360 4000 -RA BR BKN007 OVC020 05/04 Q1005 NOSIG RMK GRN
  • 240415Z 33013KT 300V360 4000 -RA BR BKN007 OVC020 06/05 Q1005 NOSIG RMK GRN
  • 240345Z 32010KT 4000 -RA BR SCT007 OVC020 06/05 Q1005 NOSIG RMK GRN

TAF TAF LHPA
Valido dal 24 a 06 ore il 25 a 06 ore UTC


240515Z 2406/2506 33016G26KT 6000 -RA SCT015 BKN020 OVC060
TEMPO 2406/2412 3000 RA BR BKN005 OVC015
BECMG 2412/2415 9999 NSW BKN030 OVC083
BECMG 2415/2418 24004KT 6000 SCT030 BKN083
BECMG 2500/2503 VRB03KT 3000 BR NSC
PROB40
TEMPO 2500/2506 0600 FG BKN003



MetMap, La meteo Aeronautica in un colpo d'occhio ! - Copyright ORBIFLY Dicembre 2007 - Disclaimer

ORBIFLY MET'MAP TEAM :

Programmazione e sviluppo : Alexandra Zaïnal
Concezione : Baudouin d'Aumeries
Supporto tecnico e logistico : Manuel Goepfert
Aiuto : Marc-Olivier Méhu
Aiuto per la traduzione : Arnaldo La Scala




FONTI E CREDITI :

   NOAA